createdAt,value
2022-12-25T12:10:34.974Z,16.00
2022-12-25T12:13:56.103Z,15.90
2022-12-25T12:17:02.897Z,12.20
2022-12-25T12:20:28.148Z,12.40
2022-12-25T12:23:38.168Z,12.80
2022-12-25T12:26:46.307Z,13.00
2022-12-25T12:29:55.432Z,11.30
2022-12-25T12:33:03.320Z,13.30
2022-12-25T12:36:12.717Z,13.70
2022-12-25T12:39:27.256Z,12.30
2022-12-25T12:42:38.953Z,12.20
2022-12-25T12:45:44.926Z,9.70
2022-12-25T12:48:53.601Z,12.70
2022-12-25T12:52:26.670Z,11.20
2022-12-25T12:55:34.933Z,12.00
2022-12-25T12:58:50.141Z,10.00
2022-12-25T13:02:07.204Z,10.30
2022-12-25T13:05:21.117Z,10.70
2022-12-25T13:08:43.636Z,12.60
2022-12-25T13:11:50.526Z,9.20
2022-12-25T13:14:57.115Z,10.70
2022-12-25T13:18:08.299Z,13.30
2022-12-25T13:21:23.461Z,13.10
2022-12-25T13:24:32.230Z,11.20
2022-12-25T13:27:38.561Z,11.60
2022-12-25T13:30:47.202Z,13.20
2022-12-25T13:33:58.009Z,13.70
2022-12-25T13:37:11.364Z,13.40
2022-12-25T13:40:29.361Z,14.70
2022-12-25T13:43:35.600Z,17.30
2022-12-25T13:49:46.971Z,19.80
2022-12-25T13:52:54.176Z,12.90
2022-12-25T13:56:01.466Z,14.90
2022-12-25T13:59:07.834Z,15.80
2022-12-25T14:02:21.563Z,16.40
2022-12-25T14:05:34.745Z,13.10
2022-12-25T14:08:46.397Z,13.70
2022-12-25T14:11:55.152Z,15.10
2022-12-25T14:15:02.275Z,16.40
2022-12-25T14:18:15.594Z,19.80
2022-12-25T14:21:28.827Z,17.80
2022-12-25T14:24:36.101Z,18.60
2022-12-25T14:27:42.356Z,18.80
2022-12-25T14:33:54.207Z,13.60
2022-12-25T14:37:01.197Z,14.80
2022-12-25T14:40:21.704Z,51.50
2022-12-25T14:43:30.723Z,22.30
2022-12-25T14:46:37.426Z,17.60
2022-12-25T14:49:44.180Z,22.70
2022-12-25T14:52:50.524Z,31.10
2022-12-25T14:59:04.039Z,59.90
2022-12-25T15:02:20.437Z,64.60
2022-12-25T15:05:33.137Z,51.40
2022-12-25T15:08:41.243Z,22.40
2022-12-25T15:11:50.898Z,15.80
2022-12-25T15:14:57.086Z,21.20
2022-12-25T15:18:05.277Z,31.10
2022-12-25T15:21:16.726Z,43.90
2022-12-25T15:24:23.014Z,37.00
2022-12-25T15:30:35.585Z,32.40
2022-12-25T15:33:44.256Z,32.10
2022-12-25T15:36:52.682Z,32.00
2022-12-25T15:39:59.606Z,36.70
2022-12-25T15:43:11.553Z,33.90
2022-12-25T15:46:28.868Z,23.80
2022-12-25T15:52:39.843Z,26.30
2022-12-25T15:58:50.857Z,17.10
2022-12-25T16:01:58.836Z,16.70
2022-12-25T16:05:10.292Z,18.80
2022-12-25T16:08:17.032Z,17.50
2022-12-25T16:14:27.679Z,17.90
2022-12-25T16:17:33.887Z,18.70
2022-12-25T16:20:40.103Z,20.70
2022-12-25T16:23:46.643Z,25.60
2022-12-25T16:26:52.930Z,20.30
2022-12-25T16:33:03.858Z,20.60
2022-12-25T16:39:15.364Z,16.70
2022-12-25T16:42:21.595Z,20.30
2022-12-25T16:45:28.010Z,32.20
2022-12-25T16:48:34.208Z,25.30
2022-12-25T16:51:40.336Z,24.50
2022-12-25T16:54:48.082Z,19.90
2022-12-25T16:57:54.366Z,24.00
2022-12-25T17:04:11.710Z,26.10
2022-12-25T17:07:18.981Z,24.50
2022-12-25T17:10:25.277Z,24.30
2022-12-25T17:16:38.512Z,45.90
2022-12-25T17:19:44.811Z,33.60
2022-12-25T17:22:52.927Z,31.00
2022-12-25T17:26:03.208Z,34.90
2022-12-25T17:29:09.735Z,27.50
2022-12-25T17:32:15.911Z,26.90
2022-12-25T17:35:23.539Z,28.80
2022-12-25T17:38:29.869Z,34.80
2022-12-25T17:44:40.727Z,35.20
2022-12-25T17:47:47.006Z,33.90
2022-12-25T17:54:00.298Z,34.80
2022-12-25T17:57:06.523Z,35.70
2022-12-25T18:00:14.395Z,38.70
2022-12-25T18:03:21.408Z,39.70
2022-12-25T18:06:29.690Z,44.40
2022-12-25T18:09:35.927Z,47.10
2022-12-25T18:12:44.132Z,45.70
2022-12-25T18:15:50.420Z,35.10
2022-12-25T18:22:01.554Z,50.30
2022-12-25T18:25:09.045Z,51.20
2022-12-25T18:28:15.690Z,56.40
2022-12-25T18:31:24.616Z,53.10
2022-12-25T18:34:30.808Z,54.40
2022-12-25T18:37:40.223Z,43.20
2022-12-25T18:40:48.869Z,48.70
2022-12-25T18:43:55.996Z,42.10
2022-12-25T18:47:02.576Z,40.20
2022-12-25T18:53:14.754Z,36.60
2022-12-25T18:59:25.667Z,44.30
2022-12-25T19:02:32.288Z,49.00
2022-12-25T19:05:41.505Z,47.80
2022-12-25T19:08:47.835Z,43.50
2022-12-25T19:18:04.661Z,56.00
2022-12-25T19:21:11.761Z,54.50
2022-12-25T19:24:17.960Z,46.40
2022-12-25T19:27:24.301Z,48.00
2022-12-25T19:33:36.177Z,41.40
2022-12-25T19:36:42.541Z,41.60
2022-12-25T19:42:53.519Z,48.50
2022-12-25T19:46:00.003Z,45.40
2022-12-25T19:49:07.839Z,46.30
2022-12-25T19:52:15.253Z,49.00
2022-12-25T19:55:22.153Z,47.50
2022-12-25T19:58:28.456Z,48.70
2022-12-25T20:04:39.773Z,51.00
2022-12-25T20:07:46.011Z,57.60
2022-12-25T20:10:52.741Z,52.50
2022-12-25T20:13:59.174Z,47.70
2022-12-25T20:17:07.306Z,58.30
2022-12-25T20:20:17.561Z,47.90
2022-12-25T20:23:24.002Z,53.50
2022-12-25T20:26:32.233Z,46.60
2022-12-25T20:29:39.797Z,51.90
2022-12-25T20:32:50.432Z,53.70
2022-12-25T20:36:00.165Z,51.20
2022-12-25T20:39:09.849Z,51.60
2022-12-25T20:42:16.438Z,50.80
2022-12-25T20:45:22.723Z,64.10
2022-12-25T20:51:33.464Z,51.30
2022-12-25T20:54:40.182Z,49.80
2022-12-25T20:57:46.461Z,53.40
2022-12-25T21:03:57.909Z,50.30
2022-12-25T21:07:05.259Z,50.00
2022-12-25T21:10:13.069Z,52.00
2022-12-25T21:13:20.119Z,43.80
2022-12-25T21:16:27.360Z,50.80
2022-12-25T21:19:33.691Z,54.40
2022-12-25T21:25:44.593Z,62.80
2022-12-25T21:32:28.017Z,126.10
2022-12-25T21:35:36.683Z,101.60
2022-12-25T21:38:42.887Z,69.10
2022-12-25T21:41:49.229Z,90.30
2022-12-25T21:48:03.028Z,71.80
2022-12-25T21:51:32.268Z,79.30
2022-12-25T21:54:38.705Z,72.80
2022-12-25T21:57:45.026Z,78.60
2022-12-25T22:03:55.722Z,91.10
2022-12-25T22:07:20.075Z,79.10
2022-12-25T22:10:26.380Z,80.60
2022-12-25T22:17:11.963Z,78.70
2022-12-25T22:20:20.064Z,66.60
2022-12-25T22:23:26.317Z,52.10
2022-12-25T22:26:32.598Z,60.50
2022-12-25T22:32:43.742Z,63.70
2022-12-25T22:38:54.516Z,78.10
2022-12-25T22:42:02.405Z,52.60
2022-12-25T22:45:10.340Z,44.50
2022-12-25T22:48:16.700Z,63.70
2022-12-25T22:54:29.964Z,67.50
2022-12-25T22:57:36.294Z,78.60
2022-12-25T23:03:56.183Z,73.30
2022-12-25T23:07:02.280Z,63.80
2022-12-25T23:10:10.830Z,85.70
2022-12-25T23:13:35.118Z,54.40
2022-12-25T23:16:41.292Z,58.80
2022-12-25T23:20:05.329Z,70.20
2022-12-25T23:23:33.183Z,175.00
2022-12-25T23:26:39.304Z,52.30
2022-12-25T23:29:45.635Z,68.70
2022-12-25T23:35:56.360Z,59.90
2022-12-25T23:42:16.310Z,44.20
2022-12-25T23:48:27.243Z,47.40
2022-12-25T23:54:38.287Z,40.70
2022-12-25T23:57:44.627Z,45.60
